sensor_id;sensor_type;location;lat;lon;timestamp;P1;durP1;ratioP1;P2;durP2;ratioP2
8060;SDS011;4073;42.626;25.386;2023-11-19T00:01:26;4.20;;;3.37;;
8060;SDS011;4073;42.626;25.386;2023-11-19T00:03:51;1.90;;;1.40;;
8060;SDS011;4073;42.626;25.386;2023-11-19T00:06:18;1.30;;;1.20;;
8060;SDS011;4073;42.626;25.386;2023-11-19T00:08:44;3.47;;;1.23;;
8060;SDS011;4073;42.626;25.386;2023-11-19T00:11:09;1.10;;;1.00;;
8060;SDS011;4073;42.626;25.386;2023-11-19T00:13:35;1.17;;;1.07;;
8060;SDS011;4073;42.626;25.386;2023-11-19T00:16:01;1.07;;;1.03;;
8060;SDS011;4073;42.626;25.386;2023-11-19T00:18:29;0.83;;;0.83;;
8060;SDS011;4073;42.626;25.386;2023-11-19T00:20:54;1.03;;;0.90;;
8060;SDS011;4073;42.626;25.386;2023-11-19T00:23:20;0.87;;;0.67;;
8060;SDS011;4073;42.626;25.386;2023-11-19T00:25:45;0.90;;;0.90;;
8060;SDS011;4073;42.626;25.386;2023-11-19T00:28:13;1.03;;;0.83;;
8060;SDS011;4073;42.626;25.386;2023-11-19T00:30:38;1.20;;;1.10;;
8060;SDS011;4073;42.626;25.386;2023-11-19T00:33:05;1.03;;;0.97;;
8060;SDS011;4073;42.626;25.386;2023-11-19T00:35:31;1.10;;;0.90;;
8060;SDS011;4073;42.626;25.386;2023-11-19T00:37:57;0.83;;;0.80;;
8060;SDS011;4073;42.626;25.386;2023-11-19T00:40:22;0.67;;;0.67;;
8060;SDS011;4073;42.626;25.386;2023-11-19T00:42:48;0.70;;;0.70;;
8060;SDS011;4073;42.626;25.386;2023-11-19T00:45:14;0.80;;;0.80;;
8060;SDS011;4073;42.626;25.386;2023-11-19T00:47:40;1.37;;;0.77;;
8060;SDS011;4073;42.626;25.386;2023-11-19T00:50:06;1.47;;;0.77;;
8060;SDS011;4073;42.626;25.386;2023-11-19T00:52:34;0.77;;;0.67;;
8060;SDS011;4073;42.626;25.386;2023-11-19T00:55:01;0.77;;;0.63;;
8060;SDS011;4073;42.626;25.386;2023-11-19T00:57:26;0.70;;;0.70;;
8060;SDS011;4073;42.626;25.386;2023-11-19T00:59:52;0.70;;;0.70;;
8060;SDS011;4073;42.626;25.386;2023-11-19T01:02:17;0.70;;;0.70;;
8060;SDS011;4073;42.626;25.386;2023-11-19T01:04:43;0.80;;;0.70;;
8060;SDS011;4073;42.626;25.386;2023-11-19T01:07:09;0.80;;;0.80;;
8060;SDS011;4073;42.626;25.386;2023-11-19T01:09:37;0.73;;;0.70;;
8060;SDS011;4073;42.626;25.386;2023-11-19T01:12:03;0.80;;;0.70;;
8060;SDS011;4073;42.626;25.386;2023-11-19T01:14:29;0.70;;;0.70;;
8060;SDS011;4073;42.626;25.386;2023-11-19T01:16:55;0.80;;;0.80;;
8060;SDS011;4073;42.626;25.386;2023-11-19T01:19:21;0.70;;;0.60;;
8060;SDS011;4073;42.626;25.386;2023-11-19T01:21:47;0.80;;;0.80;;
8060;SDS011;4073;42.626;25.386;2023-11-19T01:24:13;0.70;;;0.70;;
8060;SDS011;4073;42.626;25.386;2023-11-19T01:26:39;0.90;;;0.73;;
8060;SDS011;4073;42.626;25.386;2023-11-19T01:29:10;1.07;;;0.97;;
8060;SDS011;4073;42.626;25.386;2023-11-19T01:31:39;0.80;;;0.70;;
8060;SDS011;4073;42.626;25.386;2023-11-19T01:34:05;1.50;;;0.90;;
8060;SDS011;4073;42.626;25.386;2023-11-19T01:36:31;0.73;;;0.73;;
8060;SDS011;4073;42.626;25.386;2023-11-19T01:38:56;1.30;;;0.80;;
8060;SDS011;4073;42.626;25.386;2023-11-19T01:41:22;1.33;;;1.00;;
8060;SDS011;4073;42.626;25.386;2023-11-19T01:43:47;0.77;;;0.70;;
8060;SDS011;4073;42.626;25.386;2023-11-19T01:46:13;0.87;;;0.87;;
8060;SDS011;4073;42.626;25.386;2023-11-19T01:48:40;0.80;;;0.80;;
8060;SDS011;4073;42.626;25.386;2023-11-19T01:51:09;1.10;;;1.00;;
8060;SDS011;4073;42.626;25.386;2023-11-19T01:53:36;1.10;;;1.00;;
8060;SDS011;4073;42.626;25.386;2023-11-19T01:56:03;0.97;;;0.73;;
8060;SDS011;4073;42.626;25.386;2023-11-19T01:58:34;1.17;;;1.00;;
8060;SDS011;4073;42.626;25.386;2023-11-19T02:01:01;1.10;;;1.00;;
8060;SDS011;4073;42.626;25.386;2023-11-19T02:03:31;1.57;;;1.47;;
8060;SDS011;4073;42.626;25.386;2023-11-19T02:05:58;1.23;;;1.13;;
8060;SDS011;4073;42.626;25.386;2023-11-19T02:08:24;1.73;;;1.27;;
8060;SDS011;4073;42.626;25.386;2023-11-19T02:10:51;1.00;;;0.90;;
8060;SDS011;4073;42.626;25.386;2023-11-19T02:13:17;1.27;;;1.17;;
8060;SDS011;4073;42.626;25.386;2023-11-19T02:15:43;1.47;;;1.37;;
8060;SDS011;4073;42.626;25.386;2023-11-19T02:18:21;1.43;;;1.33;;
8060;SDS011;4073;42.626;25.386;2023-11-19T02:20:56;2.43;;;1.40;;
8060;SDS011;4073;42.626;25.386;2023-11-19T02:23:22;1.10;;;1.00;;
8060;SDS011;4073;42.626;25.386;2023-11-19T02:28:36;1.20;;;1.10;;
8060;SDS011;4073;42.626;25.386;2023-11-19T02:31:02;1.43;;;1.27;;
8060;SDS011;4073;42.626;25.386;2023-11-19T02:33:30;1.20;;;1.10;;
8060;SDS011;4073;42.626;25.386;2023-11-19T02:35:55;1.10;;;1.10;;
8060;SDS011;4073;42.626;25.386;2023-11-19T02:38:21;1.80;;;1.10;;
8060;SDS011;4073;42.626;25.386;2023-11-19T02:40:47;1.40;;;1.30;;
8060;SDS011;4073;42.626;25.386;2023-11-19T02:43:13;1.13;;;1.03;;
8060;SDS011;4073;42.626;25.386;2023-11-19T02:45:38;1.43;;;1.33;;
8060;SDS011;4073;42.626;25.386;2023-11-19T02:48:04;1.20;;;1.10;;
8060;SDS011;4073;42.626;25.386;2023-11-19T02:50:31;1.23;;;1.00;;
8060;SDS011;4073;42.626;25.386;2023-11-19T02:52:57;1.40;;;1.30;;
8060;SDS011;4073;42.626;25.386;2023-11-19T02:55:23;1.53;;;1.27;;
8060;SDS011;4073;42.626;25.386;2023-11-19T02:57:49;1.20;;;1.10;;
8060;SDS011;4073;42.626;25.386;2023-11-19T03:00:18;1.57;;;1.30;;
8060;SDS011;4073;42.626;25.386;2023-11-19T03:02:48;1.07;;;0.97;;
8060;SDS011;4073;42.626;25.386;2023-11-19T03:05:23;1.53;;;1.43;;
8060;SDS011;4073;42.626;25.386;2023-11-19T03:07:49;1.50;;;1.33;;
8060;SDS011;4073;42.626;25.386;2023-11-19T03:10:14;0.90;;;0.73;;
8060;SDS011;4073;42.626;25.386;2023-11-19T03:12:40;2.80;;;1.67;;
8060;SDS011;4073;42.626;25.386;2023-11-19T03:15:06;3.13;;;2.67;;
8060;SDS011;4073;42.626;25.386;2023-11-19T03:17:32;3.43;;;2.27;;
8060;SDS011;4073;42.626;25.386;2023-11-19T03:19:59;1.63;;;1.53;;
8060;SDS011;4073;42.626;25.386;2023-11-19T03:22:26;1.87;;;1.20;;
8060;SDS011;4073;42.626;25.386;2023-11-19T03:24:51;1.33;;;1.23;;
8060;SDS011;4073;42.626;25.386;2023-11-19T03:27:17;1.50;;;1.40;;
8060;SDS011;4073;42.626;25.386;2023-11-19T03:29:42;1.77;;;1.60;;
8060;SDS011;4073;42.626;25.386;2023-11-19T03:32:08;1.50;;;1.40;;
8060;SDS011;4073;42.626;25.386;2023-11-19T03:34:33;1.67;;;1.57;;
8060;SDS011;4073;42.626;25.386;2023-11-19T03:36:59;1.43;;;1.33;;
8060;SDS011;4073;42.626;25.386;2023-11-19T03:39:24;1.40;;;1.13;;
8060;SDS011;4073;42.626;25.386;2023-11-19T03:41:50;3.27;;;1.00;;
8060;SDS011;4073;42.626;25.386;2023-11-19T03:44:16;1.57;;;1.47;;
8060;SDS011;4073;42.626;25.386;2023-11-19T03:46:41;1.03;;;0.97;;
8060;SDS011;4073;42.626;25.386;2023-11-19T03:49:07;1.40;;;1.30;;
8060;SDS011;4073;42.626;25.386;2023-11-19T03:51:32;1.43;;;1.33;;
8060;SDS011;4073;42.626;25.386;2023-11-19T03:53:59;1.70;;;1.60;;
8060;SDS011;4073;42.626;25.386;2023-11-19T03:56:25;1.63;;;1.47;;
8060;SDS011;4073;42.626;25.386;2023-11-19T03:58:52;1.40;;;1.30;;
8060;SDS011;4073;42.626;25.386;2023-11-19T04:01:17;1.40;;;1.30;;
8060;SDS011;4073;42.626;25.386;2023-11-19T04:03:43;0.90;;;0.90;;
8060;SDS011;4073;42.626;25.386;2023-11-19T04:06:08;1.43;;;1.30;;
8060;SDS011;4073;42.626;25.386;2023-11-19T04:08:34;1.63;;;1.53;;
8060;SDS011;4073;42.626;25.386;2023-11-19T04:11:00;1.13;;;1.00;;
8060;SDS011;4073;42.626;25.386;2023-11-19T04:13:27;1.83;;;1.50;;
8060;SDS011;4073;42.626;25.386;2023-11-19T04:15:52;2.63;;;1.50;;
8060;SDS011;4073;42.626;25.386;2023-11-19T04:18:18;1.47;;;1.37;;
8060;SDS011;4073;42.626;25.386;2023-11-19T04:20:43;2.30;;;1.37;;
8060;SDS011;4073;42.626;25.386;2023-11-19T04:23:09;1.23;;;1.10;;
8060;SDS011;4073;42.626;25.386;2023-11-19T04:25:35;1.30;;;1.10;;
8060;SDS011;4073;42.626;25.386;2023-11-19T04:28:01;1.40;;;1.30;;
8060;SDS011;4073;42.626;25.386;2023-11-19T04:30:27;3.30;;;1.30;;
8060;SDS011;4073;42.626;25.386;2023-11-19T04:32:53;2.70;;;1.80;;
8060;SDS011;4073;42.626;25.386;2023-11-19T04:35:18;1.50;;;1.37;;
8060;SDS011;4073;42.626;25.386;2023-11-19T04:37:44;1.93;;;1.73;;
8060;SDS011;4073;42.626;25.386;2023-11-19T04:40:09;1.50;;;1.40;;
8060;SDS011;4073;42.626;25.386;2023-11-19T04:42:37;1.73;;;1.63;;
8060;SDS011;4073;42.626;25.386;2023-11-19T04:45:05;1.67;;;1.30;;
8060;SDS011;4073;42.626;25.386;2023-11-19T04:47:32;1.20;;;1.10;;
8060;SDS011;4073;42.626;25.386;2023-11-19T04:49:58;1.13;;;1.07;;
8060;SDS011;4073;42.626;25.386;2023-11-19T04:52:23;1.80;;;1.40;;
8060;SDS011;4073;42.626;25.386;2023-11-19T04:54:49;3.17;;;1.90;;
8060;SDS011;4073;42.626;25.386;2023-11-19T04:57:14;2.20;;;1.83;;
8060;SDS011;4073;42.626;25.386;2023-11-19T04:59:40;1.77;;;1.63;;
8060;SDS011;4073;42.626;25.386;2023-11-19T05:02:06;2.77;;;2.23;;
8060;SDS011;4073;42.626;25.386;2023-11-19T05:04:31;2.10;;;1.90;;
8060;SDS011;4073;42.626;25.386;2023-11-19T05:06:57;1.73;;;1.30;;
8060;SDS011;4073;42.626;25.386;2023-11-19T05:09:22;1.93;;;1.83;;
8060;SDS011;4073;42.626;25.386;2023-11-19T05:11:48;3.13;;;2.70;;
8060;SDS011;4073;42.626;25.386;2023-11-19T05:14:13;7.10;;;4.63;;
8060;SDS011;4073;42.626;25.386;2023-11-19T05:16:40;24.27;;;14.33;;
8060;SDS011;4073;42.626;25.386;2023-11-19T05:19:05;36.80;;;18.73;;
8060;SDS011;4073;42.626;25.386;2023-11-19T05:21:31;23.87;;;13.53;;
8060;SDS011;4073;42.626;25.386;2023-11-19T05:23:57;14.20;;;9.10;;
8060;SDS011;4073;42.626;25.386;2023-11-19T05:26:23;8.47;;;5.53;;
8060;SDS011;4073;42.626;25.386;2023-11-19T05:28:49;6.60;;;5.50;;
8060;SDS011;4073;42.626;25.386;2023-11-19T05:31:15;7.57;;;4.60;;
8060;SDS011;4073;42.626;25.386;2023-11-19T05:33:42;8.60;;;6.17;;
8060;SDS011;4073;42.626;25.386;2023-11-19T05:36:07;24.80;;;13.70;;
8060;SDS011;4073;42.626;25.386;2023-11-19T05:38:36;11.63;;;6.87;;
8060;SDS011;4073;42.626;25.386;2023-11-19T05:41:02;9.97;;;6.60;;
8060;SDS011;4073;42.626;25.386;2023-11-19T05:43:28;9.67;;;5.80;;
8060;SDS011;4073;42.626;25.386;2023-11-19T05:45:53;14.57;;;7.93;;
8060;SDS011;4073;42.626;25.386;2023-11-19T05:48:19;17.40;;;9.43;;
8060;SDS011;4073;42.626;25.386;2023-11-19T05:50:44;12.30;;;6.80;;
8060;SDS011;4073;42.626;25.386;2023-11-19T05:53:09;5.57;;;4.20;;
8060;SDS011;4073;42.626;25.386;2023-11-19T05:55:38;8.50;;;4.80;;
8060;SDS011;4073;42.626;25.386;2023-11-19T05:58:30;12.60;;;7.30;;
8060;SDS011;4073;42.626;25.386;2023-11-19T06:00:57;7.67;;;5.33;;
8060;SDS011;4073;42.626;25.386;2023-11-19T06:03:25;8.97;;;5.23;;
8060;SDS011;4073;42.626;25.386;2023-11-19T06:05:50;9.23;;;5.03;;
8060;SDS011;4073;42.626;25.386;2023-11-19T06:08:16;13.90;;;8.07;;
8060;SDS011;4073;42.626;25.386;2023-11-19T06:10:42;3.40;;;2.97;;
8060;SDS011;4073;42.626;25.386;2023-11-19T06:13:08;3.77;;;3.17;;
8060;SDS011;4073;42.626;25.386;2023-11-19T06:15:36;3.17;;;2.50;;
8060;SDS011;4073;42.626;25.386;2023-11-19T06:18:01;4.90;;;2.77;;
8060;SDS011;4073;42.626;25.386;2023-11-19T06:20:32;3.83;;;3.43;;
8060;SDS011;4073;42.626;25.386;2023-11-19T06:22:58;5.60;;;3.97;;
8060;SDS011;4073;42.626;25.386;2023-11-19T06:25:24;5.00;;;3.20;;
8060;SDS011;4073;42.626;25.386;2023-11-19T06:27:50;5.50;;;4.17;;
8060;SDS011;4073;42.626;25.386;2023-11-19T06:30:16;6.20;;;4.17;;
8060;SDS011;4073;42.626;25.386;2023-11-19T06:32:41;3.10;;;2.47;;
8060;SDS011;4073;42.626;25.386;2023-11-19T06:35:07;3.03;;;2.73;;
8060;SDS011;4073;42.626;25.386;2023-11-19T06:37:33;3.77;;;2.57;;
8060;SDS011;4073;42.626;25.386;2023-11-19T06:39:59;5.63;;;4.20;;
8060;SDS011;4073;42.626;25.386;2023-11-19T06:42:25;3.57;;;3.10;;
8060;SDS011;4073;42.626;25.386;2023-11-19T06:44:50;3.30;;;2.97;;
8060;SDS011;4073;42.626;25.386;2023-11-19T06:47:16;4.37;;;2.37;;
8060;SDS011;4073;42.626;25.386;2023-11-19T06:49:45;2.00;;;1.90;;
8060;SDS011;4073;42.626;25.386;2023-11-19T06:52:11;2.50;;;2.30;;
8060;SDS011;4073;42.626;25.386;2023-11-19T06:54:38;1.70;;;1.60;;
8060;SDS011;4073;42.626;25.386;2023-11-19T06:57:04;1.97;;;1.87;;
8060;SDS011;4073;42.626;25.386;2023-11-19T06:59:30;1.87;;;1.63;;
8060;SDS011;4073;42.626;25.386;2023-11-19T07:01:56;4.50;;;3.40;;
8060;SDS011;4073;42.626;25.386;2023-11-19T07:04:21;2.50;;;2.23;;
8060;SDS011;4073;42.626;25.386;2023-11-19T07:06:47;4.27;;;3.10;;
8060;SDS011;4073;42.626;25.386;2023-11-19T07:09:13;2.43;;;2.23;;
8060;SDS011;4073;42.626;25.386;2023-11-19T07:11:39;4.10;;;2.90;;
8060;SDS011;4073;42.626;25.386;2023-11-19T07:14:06;3.77;;;3.37;;
8060;SDS011;4073;42.626;25.386;2023-11-19T07:16:33;5.97;;;4.90;;
8060;SDS011;4073;42.626;25.386;2023-11-19T07:18:59;3.93;;;3.00;;
8060;SDS011;4073;42.626;25.386;2023-11-19T07:21:25;4.37;;;3.83;;
8060;SDS011;4073;42.626;25.386;2023-11-19T07:23:56;3.20;;;2.90;;
8060;SDS011;4073;42.626;25.386;2023-11-19T07:26:22;2.10;;;2.00;;
8060;SDS011;4073;42.626;25.386;2023-11-19T07:28:48;3.13;;;2.83;;
8060;SDS011;4073;42.626;25.386;2023-11-19T07:31:14;3.53;;;2.57;;
8060;SDS011;4073;42.626;25.386;2023-11-19T07:33:41;2.13;;;1.60;;
8060;SDS011;4073;42.626;25.386;2023-11-19T07:36:10;2.97;;;2.40;;
8060;SDS011;4073;42.626;25.386;2023-11-19T07:38:36;2.30;;;2.10;;
8060;SDS011;4073;42.626;25.386;2023-11-19T07:41:01;3.67;;;2.77;;
8060;SDS011;4073;42.626;25.386;2023-11-19T07:43:27;3.53;;;2.60;;
8060;SDS011;4073;42.626;25.386;2023-11-19T07:45:52;8.03;;;4.93;;
8060;SDS011;4073;42.626;25.386;2023-11-19T07:48:18;11.07;;;5.67;;
8060;SDS011;4073;42.626;25.386;2023-11-19T07:50:51;3.73;;;2.93;;
8060;SDS011;4073;42.626;25.386;2023-11-19T07:53:17;9.53;;;6.10;;
8060;SDS011;4073;42.626;25.386;2023-11-19T07:55:43;3.43;;;2.97;;
8060;SDS011;4073;42.626;25.386;2023-11-19T07:58:10;15.27;;;8.30;;
8060;SDS011;4073;42.626;25.386;2023-11-19T08:00:36;5.93;;;4.90;;
8060;SDS011;4073;42.626;25.386;2023-11-19T08:03:02;4.37;;;3.27;;
8060;SDS011;4073;42.626;25.386;2023-11-19T08:05:28;5.57;;;3.87;;
8060;SDS011;4073;42.626;25.386;2023-11-19T08:07:53;3.60;;;2.57;;
8060;SDS011;4073;42.626;25.386;2023-11-19T08:10:19;2.70;;;2.47;;
8060;SDS011;4073;42.626;25.386;2023-11-19T08:12:45;3.90;;;3.23;;
8060;SDS011;4073;42.626;25.386;2023-11-19T08:15:10;5.53;;;4.30;;
8060;SDS011;4073;42.626;25.386;2023-11-19T08:17:36;4.00;;;3.17;;
8060;SDS011;4073;42.626;25.386;2023-11-19T08:20:02;4.17;;;3.17;;
8060;SDS011;4073;42.626;25.386;2023-11-19T08:22:30;3.37;;;2.70;;
8060;SDS011;4073;42.626;25.386;2023-11-19T08:24:55;2.07;;;1.87;;
8060;SDS011;4073;42.626;25.386;2023-11-19T08:27:21;2.03;;;1.90;;
8060;SDS011;4073;42.626;25.386;2023-11-19T08:29:53;13.33;;;1.57;;
8060;SDS011;4073;42.626;25.386;2023-11-19T08:32:20;1.50;;;1.40;;
8060;SDS011;4073;42.626;25.386;2023-11-19T08:34:46;1.43;;;1.30;;
8060;SDS011;4073;42.626;25.386;2023-11-19T08:37:11;2.93;;;2.27;;
8060;SDS011;4073;42.626;25.386;2023-11-19T08:39:38;2.20;;;2.00;;
8060;SDS011;4073;42.626;25.386;2023-11-19T08:42:03;3.03;;;1.90;;
8060;SDS011;4073;42.626;25.386;2023-11-19T08:44:29;1.90;;;1.80;;
8060;SDS011;4073;42.626;25.386;2023-11-19T08:46:55;5.77;;;4.03;;
8060;SDS011;4073;42.626;25.386;2023-11-19T08:49:20;5.73;;;3.70;;
8060;SDS011;4073;42.626;25.386;2023-11-19T08:51:45;2.73;;;2.13;;
8060;SDS011;4073;42.626;25.386;2023-11-19T08:54:11;3.40;;;3.07;;
8060;SDS011;4073;42.626;25.386;2023-11-19T08:56:38;2.10;;;1.90;;
8060;SDS011;4073;42.626;25.386;2023-11-19T08:59:04;4.13;;;3.47;;
8060;SDS011;4073;42.626;25.386;2023-11-19T09:01:30;4.27;;;3.03;;
8060;SDS011;4073;42.626;25.386;2023-11-19T09:03:55;2.87;;;2.63;;
8060;SDS011;4073;42.626;25.386;2023-11-19T09:06:21;3.63;;;2.50;;
8060;SDS011;4073;42.626;25.386;2023-11-19T09:08:47;4.13;;;3.30;;
8060;SDS011;4073;42.626;25.386;2023-11-19T09:11:12;3.17;;;2.87;;
8060;SDS011;4073;42.626;25.386;2023-11-19T09:13:38;2.30;;;2.10;;
8060;SDS011;4073;42.626;25.386;2023-11-19T09:16:03;2.97;;;2.67;;
8060;SDS011;4073;42.626;25.386;2023-11-19T09:18:29;4.27;;;3.73;;
8060;SDS011;4073;42.626;25.386;2023-11-19T09:20:55;3.47;;;3.03;;
8060;SDS011;4073;42.626;25.386;2023-11-19T09:23:21;3.53;;;3.10;;
8060;SDS011;4073;42.626;25.386;2023-11-19T09:25:46;5.00;;;4.50;;
8060;SDS011;4073;42.626;25.386;2023-11-19T09:28:11;5.73;;;5.00;;
8060;SDS011;4073;42.626;25.386;2023-11-19T09:30:39;2.83;;;2.57;;
8060;SDS011;4073;42.626;25.386;2023-11-19T09:33:05;2.73;;;2.53;;
8060;SDS011;4073;42.626;25.386;2023-11-19T09:35:30;4.33;;;3.63;;
8060;SDS011;4073;42.626;25.386;2023-11-19T09:37:56;2.70;;;2.50;;
8060;SDS011;4073;42.626;25.386;2023-11-19T09:40:21;2.97;;;2.67;;
8060;SDS011;4073;42.626;25.386;2023-11-19T09:42:47;2.30;;;1.87;;
8060;SDS011;4073;42.626;25.386;2023-11-19T09:45:13;2.97;;;2.20;;
8060;SDS011;4073;42.626;25.386;2023-11-19T09:47:44;1.67;;;1.57;;
8060;SDS011;4073;42.626;25.386;2023-11-19T09:50:18;2.80;;;2.30;;
8060;SDS011;4073;42.626;25.386;2023-11-19T09:52:45;2.40;;;2.20;;
8060;SDS011;4073;42.626;25.386;2023-11-19T09:55:11;4.43;;;2.00;;
8060;SDS011;4073;42.626;25.386;2023-11-19T09:57:40;2.27;;;2.07;;
8060;SDS011;4073;42.626;25.386;2023-11-19T10:00:10;1.87;;;1.50;;
8060;SDS011;4073;42.626;25.386;2023-11-19T10:02:36;4.40;;;3.53;;
8060;SDS011;4073;42.626;25.386;2023-11-19T10:05:04;1.50;;;1.40;;
8060;SDS011;4073;42.626;25.386;2023-11-19T10:07:32;1.67;;;1.57;;
8060;SDS011;4073;42.626;25.386;2023-11-19T10:09:59;1.73;;;1.63;;
8060;SDS011;4073;42.626;25.386;2023-11-19T10:12:26;1.63;;;1.53;;
8060;SDS011;4073;42.626;25.386;2023-11-19T10:14:53;1.90;;;1.80;;
8060;SDS011;4073;42.626;25.386;2023-11-19T10:17:21;2.57;;;1.83;;
8060;SDS011;4073;42.626;25.386;2023-11-19T10:19:54;2.37;;;2.17;;
8060;SDS011;4073;42.626;25.386;2023-11-19T10:22:19;2.50;;;2.30;;
8060;SDS011;4073;42.626;25.386;2023-11-19T10:24:45;2.40;;;2.20;;
8060;SDS011;4073;42.626;25.386;2023-11-19T10:27:10;2.83;;;2.23;;
8060;SDS011;4073;42.626;25.386;2023-11-19T10:29:36;2.70;;;2.47;;
8060;SDS011;4073;42.626;25.386;2023-11-19T10:32:03;2.37;;;2.13;;
8060;SDS011;4073;42.626;25.386;2023-11-19T10:34:29;2.27;;;1.97;;
8060;SDS011;4073;42.626;25.386;2023-11-19T10:36:55;2.37;;;2.17;;
8060;SDS011;4073;42.626;25.386;2023-11-19T10:39:20;2.77;;;2.00;;
8060;SDS011;4073;42.626;25.386;2023-11-19T10:41:48;3.60;;;2.30;;
8060;SDS011;4073;42.626;25.386;2023-11-19T10:44:28;2.00;;;1.80;;
8060;SDS011;4073;42.626;25.386;2023-11-19T10:46:56;3.57;;;2.10;;
8060;SDS011;4073;42.626;25.386;2023-11-19T10:49:21;2.30;;;2.10;;
8060;SDS011;4073;42.626;25.386;2023-11-19T10:51:47;2.10;;;1.90;;
8060;SDS011;4073;42.626;25.386;2023-11-19T10:54:15;2.53;;;2.30;;
8060;SDS011;4073;42.626;25.386;2023-11-19T10:56:44;1.97;;;1.80;;
8060;SDS011;4073;42.626;25.386;2023-11-19T10:59:12;2.20;;;2.00;;
8060;SDS011;4073;42.626;25.386;2023-11-19T11:01:40;2.33;;;2.07;;
8060;SDS011;4073;42.626;25.386;2023-11-19T11:04:13;2.77;;;2.37;;
8060;SDS011;4073;42.626;25.386;2023-11-19T11:06:40;4.13;;;1.80;;
8060;SDS011;4073;42.626;25.386;2023-11-19T11:09:06;2.50;;;2.20;;
8060;SDS011;4073;42.626;25.386;2023-11-19T11:11:37;3.00;;;2.70;;
8060;SDS011;4073;42.626;25.386;2023-11-19T11:14:04;3.10;;;1.67;;
8060;SDS011;4073;42.626;25.386;2023-11-19T11:16:30;2.23;;;1.87;;
8060;SDS011;4073;42.626;25.386;2023-11-19T11:18:56;2.03;;;1.90;;
8060;SDS011;4073;42.626;25.386;2023-11-19T11:21:24;2.40;;;2.20;;
8060;SDS011;4073;42.626;25.386;2023-11-19T11:39:33;2.20;;;2.00;;
8060;SDS011;4073;42.626;25.386;2023-11-19T11:44:58;2.20;;;1.73;;
8060;SDS011;4073;42.626;25.386;2023-11-19T11:50:11;2.10;;;1.70;;
8060;SDS011;4073;42.626;25.386;2023-11-19T11:53:22;2.10;;;1.93;;
8060;SDS011;4073;42.626;25.386;2023-11-19T11:58:01;1.90;;;1.80;;
8060;SDS011;4073;42.626;25.386;2023-11-19T12:03:04;1.60;;;1.50;;
8060;SDS011;4073;42.626;25.386;2023-11-19T12:05:31;2.03;;;1.73;;
8060;SDS011;4073;42.626;25.386;2023-11-19T12:08:03;1.70;;;1.60;;
8060;SDS011;4073;42.626;25.386;2023-11-19T12:10:32;1.63;;;1.53;;
8060;SDS011;4073;42.626;25.386;2023-11-19T12:13:18;1.87;;;1.77;;
8060;SDS011;4073;42.626;25.386;2023-11-19T12:18:21;2.90;;;2.13;;
8060;SDS011;4073;42.626;25.386;2023-11-19T12:20:49;2.57;;;1.70;;
8060;SDS011;4073;42.626;25.386;2023-11-19T12:23:14;1.47;;;1.37;;
8060;SDS011;4073;42.626;25.386;2023-11-19T12:25:40;1.40;;;1.30;;
8060;SDS011;4073;42.626;25.386;2023-11-19T12:28:11;1.63;;;1.53;;
8060;SDS011;4073;42.626;25.386;2023-11-19T12:30:37;1.97;;;1.70;;
8060;SDS011;4073;42.626;25.386;2023-11-19T12:33:07;1.60;;;1.50;;
8060;SDS011;4073;42.626;25.386;2023-11-19T12:35:40;1.93;;;1.83;;
8060;SDS011;4073;42.626;25.386;2023-11-19T12:38:06;2.47;;;1.70;;
8060;SDS011;4073;42.626;25.386;2023-11-19T12:40:31;2.53;;;2.07;;
8060;SDS011;4073;42.626;25.386;2023-11-19T12:42:57;3.10;;;2.60;;
8060;SDS011;4073;42.626;25.386;2023-11-19T12:45:24;1.90;;;1.77;;
8060;SDS011;4073;42.626;25.386;2023-11-19T12:47:50;3.93;;;2.43;;
8060;SDS011;4073;42.626;25.386;2023-11-19T12:50:30;1.63;;;1.53;;
8060;SDS011;4073;42.626;25.386;2023-11-19T12:53:15;2.80;;;2.27;;
8060;SDS011;4073;42.626;25.386;2023-11-19T12:55:41;2.87;;;2.10;;
8060;SDS011;4073;42.626;25.386;2023-11-19T12:58:06;2.37;;;1.90;;
8060;SDS011;4073;42.626;25.386;2023-11-19T13:00:32;8.17;;;3.00;;
8060;SDS011;4073;42.626;25.386;2023-11-19T13:02:57;2.10;;;1.93;;
8060;SDS011;4073;42.626;25.386;2023-11-19T13:10:28;2.03;;;1.83;;
8060;SDS011;4073;42.626;25.386;2023-11-19T13:13:04;2.27;;;2.07;;
8060;SDS011;4073;42.626;25.386;2023-11-19T13:15:31;2.07;;;1.70;;
8060;SDS011;4073;42.626;25.386;2023-11-19T13:18:00;2.57;;;1.87;;
8060;SDS011;4073;42.626;25.386;2023-11-19T13:20:29;1.73;;;1.63;;
8060;SDS011;4073;42.626;25.386;2023-11-19T13:22:58;2.10;;;1.90;;
8060;SDS011;4073;42.626;25.386;2023-11-19T13:25:25;2.17;;;2.07;;
8060;SDS011;4073;42.626;25.386;2023-11-19T13:27:51;2.70;;;2.50;;
8060;SDS011;4073;42.626;25.386;2023-11-19T13:30:16;2.30;;;2.10;;
8060;SDS011;4073;42.626;25.386;2023-11-19T13:32:42;2.50;;;2.30;;
8060;SDS011;4073;42.626;25.386;2023-11-19T13:35:09;1.90;;;1.47;;
8060;SDS011;4073;42.626;25.386;2023-11-19T13:37:35;1.93;;;1.73;;
8060;SDS011;4073;42.626;25.386;2023-11-19T13:40:00;2.30;;;2.10;;
8060;SDS011;4073;42.626;25.386;2023-11-19T13:42:26;2.40;;;2.20;;
8060;SDS011;4073;42.626;25.386;2023-11-19T13:44:52;2.00;;;1.80;;
8060;SDS011;4073;42.626;25.386;2023-11-19T13:47:18;2.10;;;1.83;;
8060;SDS011;4073;42.626;25.386;2023-11-19T13:49:44;2.70;;;2.40;;
8060;SDS011;4073;42.626;25.386;2023-11-19T13:52:10;2.27;;;2.03;;
8060;SDS011;4073;42.626;25.386;2023-11-19T13:54:36;2.30;;;2.10;;
8060;SDS011;4073;42.626;25.386;2023-11-19T13:57:02;3.53;;;2.80;;
8060;SDS011;4073;42.626;25.386;2023-11-19T13:59:29;3.33;;;2.47;;
8060;SDS011;4073;42.626;25.386;2023-11-19T14:01:56;2.80;;;2.50;;
8060;SDS011;4073;42.626;25.386;2023-11-19T14:04:21;4.60;;;2.37;;
8060;SDS011;4073;42.626;25.386;2023-11-19T14:06:47;2.10;;;1.87;;
8060;SDS011;4073;42.626;25.386;2023-11-19T14:09:12;1.93;;;1.80;;
8060;SDS011;4073;42.626;25.386;2023-11-19T14:11:38;2.10;;;1.90;;
8060;SDS011;4073;42.626;25.386;2023-11-19T14:14:03;1.87;;;1.77;;
8060;SDS011;4073;42.626;25.386;2023-11-19T14:16:29;2.03;;;1.93;;
8060;SDS011;4073;42.626;25.386;2023-11-19T14:18:54;2.70;;;2.10;;
8060;SDS011;4073;42.626;25.386;2023-11-19T14:21:20;2.33;;;2.10;;
8060;SDS011;4073;42.626;25.386;2023-11-19T14:23:45;3.73;;;2.63;;
8060;SDS011;4073;42.626;25.386;2023-11-19T14:26:11;6.53;;;3.83;;
8060;SDS011;4073;42.626;25.386;2023-11-19T14:28:37;5.23;;;3.53;;
8060;SDS011;4073;42.626;25.386;2023-11-19T14:31:03;3.03;;;2.83;;
8060;SDS011;4073;42.626;25.386;2023-11-19T14:33:29;3.47;;;2.80;;
8060;SDS011;4073;42.626;25.386;2023-11-19T14:35:54;3.50;;;3.20;;
8060;SDS011;4073;42.626;25.386;2023-11-19T14:38:20;6.07;;;4.93;;
8060;SDS011;4073;42.626;25.386;2023-11-19T14:40:45;5.63;;;4.97;;
8060;SDS011;4073;42.626;25.386;2023-11-19T14:43:11;6.20;;;4.80;;
8060;SDS011;4073;42.626;25.386;2023-11-19T14:45:36;4.70;;;3.77;;
8060;SDS011;4073;42.626;25.386;2023-11-19T14:48:02;6.50;;;4.77;;
8060;SDS011;4073;42.626;25.386;2023-11-19T14:50:28;7.83;;;4.80;;
8060;SDS011;4073;42.626;25.386;2023-11-19T14:52:53;5.93;;;4.97;;
8060;SDS011;4073;42.626;25.386;2023-11-19T14:55:19;8.33;;;6.03;;
8060;SDS011;4073;42.626;25.386;2023-11-19T14:57:44;5.00;;;4.20;;
8060;SDS011;4073;42.626;25.386;2023-11-19T15:00:10;5.03;;;4.53;;
8060;SDS011;4073;42.626;25.386;2023-11-19T15:02:39;6.70;;;5.30;;
8060;SDS011;4073;42.626;25.386;2023-11-19T15:05:08;4.47;;;4.07;;
8060;SDS011;4073;42.626;25.386;2023-11-19T15:07:37;5.53;;;4.90;;
8060;SDS011;4073;42.626;25.386;2023-11-19T15:10:03;6.20;;;4.30;;
8060;SDS011;4073;42.626;25.386;2023-11-19T15:12:34;9.80;;;7.00;;
8060;SDS011;4073;42.626;25.386;2023-11-19T15:15:00;3.67;;;3.27;;
8060;SDS011;4073;42.626;25.386;2023-11-19T15:17:26;3.30;;;3.00;;
8060;SDS011;4073;42.626;25.386;2023-11-19T15:19:52;3.40;;;3.00;;
8060;SDS011;4073;42.626;25.386;2023-11-19T15:22:17;2.50;;;2.30;;
8060;SDS011;4073;42.626;25.386;2023-11-19T15:24:42;3.33;;;2.73;;
8060;SDS011;4073;42.626;25.386;2023-11-19T15:27:08;4.70;;;3.00;;
8060;SDS011;4073;42.626;25.386;2023-11-19T15:29:36;3.30;;;3.00;;
8060;SDS011;4073;42.626;25.386;2023-11-19T15:32:04;3.23;;;2.93;;
8060;SDS011;4073;42.626;25.386;2023-11-19T15:34:32;4.53;;;3.70;;